Flight Track Log - Related Links

Times and Time Zones

All times are in EDT time to prevent confusion due to time zone crossing. See the JAI305 flight status page for this flight to view local times or setup timezone preferences in your user account.

Time Position Orientation Groundspeed Altitude Reporting Facility
EDT Latitude Longitude Course Direction KTS MPH feet Rate Location/Type
Mon 11:05:42 PM 28.5380 77.1070 180° South 164 189 1,700  Level FlightAware ADS-B
Mon 11:06:07 PM 28.5290 77.1240 121° Southeast 176 203 2,400 1,371 Climbing FlightAware ADS-B
Mon 11:06:17 PM 28.5220 77.1260 166° South 190 219 2,500 2,400 Climbing FlightAware ADS-B
Mon 11:06:37 PM 28.4930 77.1180 194° South 226 260 3,600 3,360 Climbing FlightAware ADS-B
Mon 11:07:07 PM 28.4610 77.1140 186° South 231 266 5,300 2,700 Climbing FlightAware ADS-B
Mon 11:07:37 PM 28.4270 77.1100 186° South 268 308 6,300 2,100 Climbing FlightAware ADS-B
Mon 11:07:47 PM 28.4150 77.1050 200° South 281 323 6,700 3,120 Climbing FlightAware ADS-B
Mon 11:08:02 PM 28.4000 77.0880 225° Southwest 285 328 7,600 3,400 Climbing FlightAware ADS-B
Mon 11:08:17 PM 28.3940 77.0680 251° West 284 327 8,400 3,300 Climbing FlightAware ADS-B
Mon 11:08:42 PM 28.4000 77.0310 280° West 284 327 9,800 2,571 Climbing FlightAware ADS-B
Mon 11:09:27 PM 28.4180 76.9610 286° West 326 375 11,400 2,471 Climbing FlightAware ADS-B
Mon 11:10:07 PM 28.4480 76.9030 300° West 343 395 13,300 3,106 Climbing FlightAware ADS-B
Mon 11:10:52 PM 28.4890 76.8330 304° West 358 412 15,800 3,106 Climbing FlightAware ADS-B
Mon 11:11:32 PM 28.5270 76.7680 304° West 374 430 17,700 3,000 Climbing FlightAware ADS-B
Mon 11:12:12 PM 28.5660 76.7020 304° West 381 438 19,800 3,106 Climbing FlightAware ADS-B
Mon 11:12:57 PM 28.6120 76.6250 304° West 386 444 22,100 2,682 Climbing FlightAware ADS-B
Mon 11:13:37 PM 28.6520 76.5580 304° West 397 457 23,600 2,259 Climbing FlightAware ADS-B
Mon 11:14:22 PM 28.6980 76.4800 304° West 407 468 25,300 2,259 Climbing FlightAware ADS-B
Mon 11:15:02 PM 28.7410 76.4080 304° West 413 475 26,800 2,250 Climbing FlightAware ADS-B
Mon 11:15:42 PM 28.7830 76.3370 304° West 418 481 28,300 2,400 Climbing FlightAware ADS-B
Mon 11:16:27 PM 28.8330 76.2520 304° West 413 475 30,200 2,400 Climbing FlightAware ADS-B
Mon 11:17:07 PM 28.8740 76.1820 304° West 411 473 31,700 2,118 Climbing FlightAware ADS-B
Mon 11:17:52 PM 28.9220 76.0990 303° West 408 470 33,200 1,624 Climbing FlightAware ADS-B
Mon 11:18:32 PM 28.9630 76.0300 304° West 393 452 34,000 565 Climbing FlightAware ADS-B
Mon 11:19:17 PM 29.0080 75.9530 304° West 393 452 34,000  Level FlightAware ADS-B
Mon 11:19:57 PM 29.0470 75.8850 303° West 393 452 34,000  Level FlightAware ADS-B
Mon 11:20:37 PM 29.0900 75.8110 304° West 393 452 34,000  Level FlightAware ADS-B
Mon 11:21:22 PM 29.1340 75.7370 304° West 393 452 34,000  Level FlightAware ADS-B
Mon 11:22:02 PM 29.1750 75.6660 303° West 393 452 34,000  Level FlightAware ADS-B
Mon 11:22:47 PM 29.2210 75.5860 303° West 393 452 34,000  Level FlightAware ADS-B
Mon 11:23:27 PM 29.2610 75.5170 304° West 394 453 34,000  Level FlightAware ADS-B
Mon 11:24:07 PM 29.2990 75.4500 303° West 394 453 34,000  Level FlightAware ADS-B
Mon 11:24:37 PM 29.3400 75.4040 316° Northwest 395 455 34,000  Level FlightAware ADS-B
Mon 11:24:52 PM 29.3640 75.3930 338° Northwest 400 460 34,000  Level FlightAware ADS-B
Mon 11:25:32 PM 29.4370 75.3810 352° North 400 460 34,000  Level FlightAware ADS-B
Mon 11:26:12 PM 29.5110 75.3700 353° North 400 460 34,000  Level FlightAware ADS-B
Mon 11:26:57 PM 29.5920 75.3570 352° North 400 460 34,000  Level FlightAware ADS-B
Mon 11:27:37 PM 29.6690 75.3440 352° North 399 459 34,000 -75 Level FlightAware ADS-B
Mon 11:28:17 PM 29.7420 75.3320 352° North 400 460 33,900 -353 Descending FlightAware ADS-B
Mon 11:29:02 PM 29.8230 75.3190 352° North 402 463 33,500 -565 Descending FlightAware ADS-B
Mon 11:29:42 PM 29.8980 75.3070 352° North 405 466 33,100 -847 Descending FlightAware ADS-B
Mon 11:30:27 PM 29.9800 75.2940 352° North 407 468 32,300 -1,059 Descending FlightAware ADS-B
Mon 11:31:07 PM 30.0570 75.2810 352° North 401 461 31,600 -1,129 Descending FlightAware ADS-B
Mon 11:31:52 PM 30.1390 75.2680 352° North 399 459 30,700 -1,553 Descending FlightAware ADS-B
Mon 11:32:32 PM 30.2100 75.2560 352° North 389 448 29,400 -1,950 Descending FlightAware ADS-B
Mon 11:33:12 PM 30.2810 75.2450 352° North 382 440 28,100 -1,976 Descending FlightAware ADS-B
Mon 11:33:57 PM 30.3610 75.2320 352° North 373 429 26,600 -1,906 Descending FlightAware ADS-B
Mon 11:34:37 PM 30.4290 75.2210 352° North 366 421 25,400 -1,835 Descending FlightAware ADS-B
Mon 11:35:22 PM 30.5030 75.2090 352° North 359 413 24,000 -1,835 Descending FlightAware ADS-B
Mon 11:36:02 PM 30.5690 75.1980 352° North 354 407 22,800 -1,800 Descending FlightAware ADS-B
Mon 11:36:42 PM 30.6320 75.1870 351° North 351 404 21,600 -1,553 Descending FlightAware ADS-B
Mon 11:37:27 PM 30.7060 75.1750 352° North 349 402 20,600 -1,129 Descending FlightAware ADS-B
Mon 11:38:07 PM 30.7680 75.1650 352° North 347 399 20,000 -918 Descending FlightAware ADS-B
Mon 11:38:52 PM 30.8390 75.1450 346° North 334 384 19,300 -1,341 Descending FlightAware ADS-B
Mon 11:39:32 PM 30.8960 75.1220 341° North 331 381 18,100 -2,025 Descending FlightAware ADS-B
Mon 11:40:12 PM 30.9550 75.0990 342° North 337 388 16,600 -1,906 Descending FlightAware ADS-B
Mon 11:40:57 PM 31.0220 75.0720 341° North 323 372 15,400 -1,600 Descending FlightAware ADS-B
Mon 11:41:42 PM 31.0830 75.0480 341° North 309 356 14,200 -1,694 Descending FlightAware ADS-B
Mon 11:42:22 PM 31.1350 75.0270 341° North 297 342 13,000 -1,950 Descending FlightAware ADS-B
Mon 11:43:02 PM 31.1860 75.0060 341° North 294 338 11,600 -2,047 Descending FlightAware ADS-B
Mon 11:43:47 PM 31.2460 74.9820 341° North 289 333 10,100 -1,971 Descending FlightAware ADS-B
Mon 11:44:12 PM 31.2760 74.9700 341° North 288 331 9,300 -1,920 Descending FlightAware ADS-B
Mon 11:44:37 PM 31.3050 74.9580 341° North 286 329 8,500 -1,800 Descending FlightAware ADS-B
Mon 11:45:12 PM 31.3470 74.9410 341° North 280 322 7,500 -1,840 Descending FlightAware ADS-B
Mon 11:45:52 PM 31.4000 74.9190 340° North 273 314 6,200 -1,938 Descending FlightAware ADS-B
Mon 11:46:17 PM 31.4310 74.9090 345° North 273 314 5,400 -1,800 Descending FlightAware ADS-B
Mon 11:46:42 PM 31.4580 74.9020 348° North 274 315 4,700 -840 Descending FlightAware ADS-B
Mon 11:47:07 PM 31.4890 74.8940 348° North 274 315 4,700  Level FlightAware ADS-B
Mon 11:49:00 PM 31.5966 74.8474 340° North  Level Estimated
Mon 11:50:00 PM 31.6538 74.8227 340° North  Level Estimated
Mon 11:51:00 PM 31.7078 74.7992 340° North  Level Estimated
Mon 11:52:00 PM 31.7078 74.7992 320° Northwest  Level Estimated
Mon 11:53:00 PM 31.7078 74.7992 320° Northwest  Level Estimated
Mon 11:54:00 PM 31.7078 74.7992 320° Northwest  Level Estimated
Mon 11:55:00 PM 31.7078 74.7992 320° Northwest  Level Estimated
Mon 11:56:00 PM 31.7078 74.7992 320° Northwest  Level Estimated
Mon 11:57:00 PM 31.7078 74.7992 320° Northwest  Level Estimated
Mon 11:58:00 PM 31.7078 74.7992 320° Northwest  Level Estimated
Mon 11:59:00 PM 31.7078 74.7992 320° Northwest  Level Estimated
Tue 12:00:00 AM 31.7078 74.7992 320° Northwest  Level Estimated
Tue 12:01:00 AM 31.7078 74.7992 320° Northwest  Level Estimated

Login

Don't have an account? Register now (free) for customized features, flight alerts, and more!